Time;durP1;ratioP1;P1;durP2;ratioP2;P2;SDS_P1;SDS_P2;PMS_P1;PMS_P2;Temp;Humidity;BMP_temperature;BMP_pressure;BME280_temperature;BME280_humidity;BME280_pressure;Samples;Min_cycle;Max_cycle;Signal;HPM_P1;HPM_P2
2022/08/08 00:02:00;;;;;;;3.42;2.38;;;;;;;;;;5002568;28;20037;-45
2022/08/08 00:04:36;;;;;;;3.10;2.60;;;;;;;;;;5005192;28;20038;-48
2022/08/08 00:07:25;;;;;;;3.83;2.47;;;;;;;;;;5003123;28;20026;-48
2022/08/08 00:10:19;;;;;;;5.18;3.13;;;;;;;;;;5004584;28;20376;-46
2022/08/08 00:12:50;;;;;;;5.28;2.83;;;;;;;;;;5002236;28;20057;-49
2022/08/08 00:15:23;;;;;;;2.80;2.50;;;;;;;;;;5005410;28;20030;-46
2022/08/08 00:17:53;;;;;;;3.67;2.45;;;;;;;;;;5006194;28;20545;-49
2022/08/08 00:20:28;;;;;;;3.55;2.50;;;;;;;;;;5006535;28;20038;-49
2022/08/08 00:23:00;;;;;;;6.07;2.88;;;;;;;;;;5008736;28;20030;-46
2022/08/08 00:25:59;;;;;;;5.38;2.38;;;;;;;;;;5009198;28;20088;-47
2022/08/08 00:28:48;;;;;;;7.97;2.45;;;;;;;;;;4985118;28;20035;-45
2022/08/08 00:31:18;;;;;;;2.72;2.53;;;;;;;;;;4987478;28;20038;-47
2022/08/08 00:37:09;;;;;;;8.07;2.58;;;;;;;;;;4988168;28;20484;-47
2022/08/08 00:39:50;;;;;;;4.03;3.00;;;;;;;;;;4985983;28;20102;-46
2022/08/08 00:42:53;;;;;;;5.20;3.25;;;;;;;;;;4987310;28;20174;-46
2022/08/08 00:45:37;;;;;;;4.40;2.65;;;;;;;;;;4985462;28;20043;-45
2022/08/08 00:48:34;;;;;;;4.47;2.60;;;;;;;;;;4985124;28;20073;-45
2022/08/08 00:51:22;;;;;;;3.42;2.53;;;;;;;;;;4977260;28;20137;-46
2022/08/08 00:54:00;;;;;;;5.22;2.88;;;;;;;;;;4987426;28;20435;-51
2022/08/08 00:56:56;;;;;;;3.17;2.55;;;;;;;;;;4983863;28;20515;-49
2022/08/08 00:59:36;;;;;;;6.82;2.80;;;;;;;;;;4983336;28;20046;-46
2022/08/08 01:02:39;;;;;;;6.43;3.00;;;;;;;;;;4985488;28;20058;-50
2022/08/08 01:05:23;;;;;;;3.67;2.80;;;;;;;;;;5010279;28;20034;-46
2022/08/08 01:08:24;;;;;;;4.57;2.85;;;;;;;;;;5006169;28;20115;-45
2022/08/08 01:11:28;;;;;;;4.00;2.72;;;;;;;;;;4968688;28;20030;-45
2022/08/08 01:13:56;;;;;;;3.58;3.20;;;;;;;;;;4968238;28;20041;-47
2022/08/08 01:16:46;;;;;;;3.85;2.80;;;;;;;;;;4967276;28;20045;-46
2022/08/08 01:19:40;;;;;;;7.55;3.00;;;;;;;;;;4963345;28;20039;-46
2022/08/08 01:22:36;;;;;;;7.35;2.83;;;;;;;;;;4966068;28;20078;-47
2022/08/08 01:25:40;;;;;;;4.10;3.00;;;;;;;;;;4964559;28;20074;-46
2022/08/08 01:28:38;;;;;;;3.53;2.70;;;;;;;;;;4963608;28;20043;-46
2022/08/08 01:31:39;;;;;;;5.43;2.80;;;;;;;;;;4963330;28;20052;-46
2022/08/08 01:34:29;;;;;;;6.40;3.33;;;;;;;;;;4906914;29;20485;-49
2022/08/08 01:37:07;;;;;;;7.55;2.70;;;;;;;;;;4907380;29;20048;-45
2022/08/08 01:40:03;;;;;;;6.07;3.10;;;;;;;;;;4909652;29;20044;-48
2022/08/08 01:43:04;;;;;;;3.83;2.85;;;;;;;;;;4910626;29;20553;-48
2022/08/08 01:45:55;;;;;;;3.95;2.63;;;;;;;;;;4939721;28;20043;-47
2022/08/08 01:48:32;;;;;;;7.88;2.88;;;;;;;;;;4947670;28;20070;-47
2022/08/08 01:51:35;;;;;;;4.32;2.88;;;;;;;;;;4948214;28;20154;-46
2022/08/08 01:54:09;;;;;;;4.28;3.03;;;;;;;;;;4946487;28;20031;-46
2022/08/08 01:56:59;;;;;;;3.30;2.60;;;;;;;;;;4946849;28;20031;-46
2022/08/08 01:59:43;;;;;;;5.28;2.78;;;;;;;;;;4947414;28;20155;-47
2022/08/08 02:02:46;;;;;;;7.05;3.10;;;;;;;;;;4947098;28;20043;-47
2022/08/08 02:05:21;;;;;;;8.93;2.65;;;;;;;;;;4945435;28;20035;-46
2022/08/08 02:08:12;;;;;;;5.43;3.20;;;;;;;;;;4967882;28;20045;-46
2022/08/08 02:11:26;;;;;;;8.63;2.88;;;;;;;;;;5004847;28;20531;-46
2022/08/08 02:14:30;;;;;;;3.53;3.00;;;;;;;;;;4987125;28;20092;-43
2022/08/08 02:17:02;;;;;;;7.32;2.90;;;;;;;;;;4984684;28;20116;-45
2022/08/08 02:19:38;;;;;;;4.78;3.03;;;;;;;;;;4984425;28;20037;-46
2022/08/08 02:22:31;;;;;;;6.07;3.15;;;;;;;;;;4985961;28;20479;-46
2022/08/08 02:25:29;;;;;;;5.47;3.00;;;;;;;;;;4985127;28;20053;-46
2022/08/08 02:27:55;;;;;;;6.05;3.00;;;;;;;;;;4908996;29;20039;-46
2022/08/08 02:30:30;;;;;;;2.90;2.70;;;;;;;;;;4911327;29;20593;-46
2022/08/08 02:33:18;;;;;;;6.35;3.35;;;;;;;;;;4910434;29;20103;-49
2022/08/08 02:36:30;;;;;;;3.83;2.80;;;;;;;;;;4911581;29;20040;-46
2022/08/08 02:39:13;;;;;;;8.30;3.17;;;;;;;;;;4850521;29;20097;-45
2022/08/08 02:42:09;;;;;;;4.10;3.15;;;;;;;;;;4850038;29;20087;-46
2022/08/08 02:44:35;;;;;;;6.80;2.90;;;;;;;;;;4814249;29;20152;-47
2022/08/08 02:47:22;;;;;;;4.97;2.80;;;;;;;;;;4819157;29;20576;-45
2022/08/08 02:50:09;;;;;;;4.32;2.97;;;;;;;;;;4832527;29;20095;-45
2022/08/08 02:53:13;;;;;;;3.13;2.78;;;;;;;;;;4831853;29;20186;-46
2022/08/08 02:56:07;;;;;;;3.60;2.85;;;;;;;;;;4833231;29;20232;-47
2022/08/08 02:59:09;;;;;;;4.68;2.92;;;;;;;;;;4834614;29;20054;-47
2022/08/08 03:01:56;;;;;;;5.45;3.15;;;;;;;;;;4834199;29;20050;-46
2022/08/08 03:05:13;;;;;;;3.65;2.70;;;;;;;;;;4850048;29;20045;-46
2022/08/08 03:07:53;;;;;;;3.85;3.10;;;;;;;;;;4852535;29;20061;-47
2022/08/08 03:10:22;;;;;;;3.13;2.65;;;;;;;;;;4850041;29;20077;-45
2022/08/08 03:13:18;;;;;;;8.60;3.03;;;;;;;;;;4843688;29;20053;-49
2022/08/08 03:16:11;;;;;;;6.10;3.22;;;;;;;;;;4834351;29;20590;-45
2022/08/08 03:18:37;;;;;;;4.93;2.53;;;;;;;;;;4836827;29;20032;-47
2022/08/08 03:21:02;;;;;;;3.53;3.03;;;;;;;;;;4848864;29;20497;-45
2022/08/08 03:23:29;;;;;;;8.95;3.30;;;;;;;;;;4872711;29;20056;-46
2022/08/08 03:25:56;;;;;;;3.47;3.17;;;;;;;;;;4886507;29;20039;-47
2022/08/08 03:28:31;;;;;;;6.80;2.92;;;;;;;;;;4926728;29;20042;-47
2022/08/08 03:30:57;;;;;;;8.68;3.00;;;;;;;;;;4923356;29;20087;-46
2022/08/08 03:33:24;;;;;;;4.63;3.05;;;;;;;;;;4926870;29;20024;-47
2022/08/08 03:35:51;;;;;;;3.25;2.85;;;;;;;;;;4926767;29;20048;-45
2022/08/08 03:38:20;;;;;;;3.13;2.88;;;;;;;;;;4928059;29;20115;-46
2022/08/08 03:40:51;;;;;;;4.85;2.70;;;;;;;;;;4923934;29;20083;-49
2022/08/08 03:43:17;;;;;;;3.50;2.50;;;;;;;;;;4976280;28;20145;-46
2022/08/08 03:45:43;;;;;;;3.63;2.80;;;;;;;;;;5001733;28;20034;-46
2022/08/08 03:48:09;;;;;;;3.58;2.65;;;;;;;;;;5006455;28;20109;-45
2022/08/08 03:50:39;;;;;;;2.80;2.55;;;;;;;;;;5005388;28;20040;-47
2022/08/08 03:53:06;;;;;;;3.10;2.80;;;;;;;;;;5008582;28;20083;-48
2022/08/08 03:55:37;;;;;;;6.40;2.70;;;;;;;;;;5006749;28;20138;-46
2022/08/08 03:58:03;;;;;;;4.75;3.00;;;;;;;;;;5002916;28;20046;-49
2022/08/08 04:00:29;;;;;;;3.67;3.17;;;;;;;;;;5007078;28;20398;-48
2022/08/08 04:02:59;;;;;;;3.85;2.72;;;;;;;;;;5009734;28;20386;-45
2022/08/08 04:05:32;;;;;;;5.45;3.33;;;;;;;;;;5006511;28;20030;-46
2022/08/08 04:08:00;;;;;;;6.15;3.45;;;;;;;;;;5008425;28;20036;-46
2022/08/08 04:10:28;;;;;;;3.55;3.10;;;;;;;;;;5009041;28;20030;-46
2022/08/08 04:12:54;;;;;;;3.40;3.10;;;;;;;;;;5006686;28;20045;-47
2022/08/08 04:15:22;;;;;;;3.78;3.03;;;;;;;;;;5006108;28;20038;-46
2022/08/08 04:17:49;;;;;;;4.75;3.28;;;;;;;;;;5006511;28;20053;-46
2022/08/08 04:20:14;;;;;;;9.40;3.30;;;;;;;;;;5008698;28;20029;-47
2022/08/08 04:22:40;;;;;;;16.00;3.47;;;;;;;;;;5004621;28;20053;-48
2022/08/08 04:25:07;;;;;;;9.27;3.30;;;;;;;;;;5009122;28;20064;-48
2022/08/08 04:27:34;;;;;;;8.65;3.72;;;;;;;;;;5008207;28;20033;-45
2022/08/08 04:30:02;;;;;;;6.75;3.25;;;;;;;;;;5005848;28;20033;-45
2022/08/08 04:32:29;;;;;;;7.93;3.15;;;;;;;;;;5006427;28;20033;-48
2022/08/08 04:34:55;;;;;;;3.58;2.90;;;;;;;;;;5007148;28;20048;-48
2022/08/08 04:37:20;;;;;;;7.57;3.10;;;;;;;;;;5008640;28;20076;-46
2022/08/08 04:39:46;;;;;;;7.03;2.88;;;;;;;;;;5006296;28;20507;-48
2022/08/08 04:42:12;;;;;;;12.43;3.95;;;;;;;;;;5006171;28;20037;-46
2022/08/08 04:44:38;;;;;;;6.32;3.47;;;;;;;;;;5008104;28;20073;-46
2022/08/08 04:47:03;;;;;;;6.07;3.10;;;;;;;;;;5008467;28;20471;-46
2022/08/08 04:49:29;;;;;;;6.30;3.60;;;;;;;;;;5005499;28;20891;-50
2022/08/08 04:51:55;;;;;;;4.28;3.20;;;;;;;;;;5006197;28;20030;-48
2022/08/08 04:54:20;;;;;;;7.38;3.20;;;;;;;;;;5007455;28;20061;-46
2022/08/08 04:56:46;;;;;;;5.75;3.28;;;;;;;;;;5007095;28;20028;-47
2022/08/08 04:59:12;;;;;;;5.22;3.25;;;;;;;;;;5006105;28;20399;-48
2022/08/08 05:01:38;;;;;;;7.78;3.67;;;;;;;;;;5005844;28;20042;-45
2022/08/08 05:04:04;;;;;;;6.50;3.20;;;;;;;;;;5003462;28;20031;-48
2022/08/08 05:06:30;;;;;;;8.00;3.45;;;;;;;;;;5006939;28;20034;-46
2022/08/08 05:08:56;;;;;;;6.60;3.40;;;;;;;;;;5006638;28;20096;-45
2022/08/08 05:11:22;;;;;;;5.85;3.40;;;;;;;;;;5008836;28;20050;-47
2022/08/08 05:13:47;;;;;;;13.40;3.55;;;;;;;;;;5007839;28;20022;-45
2022/08/08 05:16:13;;;;;;;4.30;3.33;;;;;;;;;;5007690;28;20030;-46
2022/08/08 05:18:39;;;;;;;3.78;3.40;;;;;;;;;;5005948;28;20040;-45
2022/08/08 05:21:07;;;;;;;6.57;3.10;;;;;;;;;;5004491;28;20034;-48
2022/08/08 05:23:33;;;;;;;5.38;3.17;;;;;;;;;;5008229;28;20495;-46
2022/08/08 05:25:59;;;;;;;5.88;3.05;;;;;;;;;;5005534;28;20028;-46
2022/08/08 05:28:25;;;;;;;4.30;3.22;;;;;;;;;;5007963;28;20108;-48
2022/08/08 05:30:51;;;;;;;28.67;5.47;;;;;;;;;;5007124;28;20076;-45
2022/08/08 05:33:17;;;;;;;3.92;3.00;;;;;;;;;;5006660;28;20022;-45
2022/08/08 05:35:44;;;;;;;7.07;3.47;;;;;;;;;;5008699;28;20475;-46
2022/08/08 05:38:16;;;;;;;6.22;3.65;;;;;;;;;;5004600;28;20034;-45
2022/08/08 05:40:47;;;;;;;6.20;3.45;;;;;;;;;;5004087;28;20061;-47
2022/08/08 05:43:22;;;;;;;5.20;3.15;;;;;;;;;;5004910;28;20047;-46
2022/08/08 05:45:48;;;;;;;5.32;3.25;;;;;;;;;;5002508;28;20021;-48
2022/08/08 05:48:15;;;;;;;6.63;3.15;;;;;;;;;;5007771;28;20025;-46
2022/08/08 05:50:41;;;;;;;6.75;3.25;;;;;;;;;;5003415;28;20034;-46
2022/08/08 05:53:06;;;;;;;4.63;3.45;;;;;;;;;;5007720;28;20026;-45
2022/08/08 05:55:33;;;;;;;9.23;3.30;;;;;;;;;;5002817;28;20113;-48
2022/08/08 05:58:00;;;;;;;3.92;3.00;;;;;;;;;;5004602;28;20041;-45
2022/08/08 06:00:31;;;;;;;8.77;3.30;;;;;;;;;;5009787;28;20611;-45
2022/08/08 06:03:11;;;;;;;6.30;3.27;;;;;;;;;;5002531;28;20055;-45
2022/08/08 06:05:47;;;;;;;4.25;3.28;;;;;;;;;;5004596;28;20570;-45
2022/08/08 06:08:13;;;;;;;5.25;3.20;;;;;;;;;;5006808;28;20069;-46
2022/08/08 06:10:40;;;;;;;17.88;3.33;;;;;;;;;;5007269;28;20110;-48
2022/08/08 06:13:07;;;;;;;4.20;3.45;;;;;;;;;;5003230;28;20033;-48
2022/08/08 06:15:35;;;;;;;8.65;3.28;;;;;;;;;;5003261;28;20065;-45
2022/08/08 06:18:02;;;;;;;8.40;3.72;;;;;;;;;;5007603;28;20064;-49
2022/08/08 06:20:28;;;;;;;6.50;3.67;;;;;;;;;;5007016;28;20026;-45
2022/08/08 06:22:54;;;;;;;10.10;3.65;;;;;;;;;;5002170;28;20030;-46
2022/08/08 06:25:20;;;;;;;7.32;3.38;;;;;;;;;;5005683;28;20022;-47
2022/08/08 06:28:00;;;;;;;4.40;3.45;;;;;;;;;;5006089;28;20033;-46
2022/08/08 06:30:28;;;;;;;7.97;3.50;;;;;;;;;;5001895;28;20034;-46
2022/08/08 06:32:58;;;;;;;19.92;3.63;;;;;;;;;;5005813;28;20105;-47
2022/08/08 06:35:24;;;;;;;7.95;4.13;;;;;;;;;;5006653;28;20049;-46
2022/08/08 06:37:55;;;;;;;5.05;3.15;;;;;;;;;;5002857;28;20040;-46
2022/08/08 06:40:22;;;;;;;5.97;3.80;;;;;;;;;;5004945;28;20033;-48
2022/08/08 06:43:00;;;;;;;8.07;3.47;;;;;;;;;;5004597;28;20030;-45
2022/08/08 06:45:26;;;;;;;5.05;3.63;;;;;;;;;;5003998;28;20026;-46
2022/08/08 06:47:52;;;;;;;7.70;3.58;;;;;;;;;;5006141;28;20109;-44
2022/08/08 06:50:18;;;;;;;9.50;3.35;;;;;;;;;;5003571;28;20584;-46
2022/08/08 06:52:44;;;;;;;3.60;2.90;;;;;;;;;;5004446;28;20061;-46
2022/08/08 06:55:10;;;;;;;3.25;3.05;;;;;;;;;;5007227;28;20022;-48
2022/08/08 06:57:36;;;;;;;10.13;3.55;;;;;;;;;;5005625;28;20054;-46
2022/08/08 07:00:05;;;;;;;6.80;3.20;;;;;;;;;;5007717;28;20048;-48
2022/08/08 07:02:33;;;;;;;8.80;3.47;;;;;;;;;;5005898;28;20038;-49
2022/08/08 07:05:04;;;;;;;5.53;3.92;;;;;;;;;;5004799;28;20030;-46
2022/08/08 07:07:56;;;;;;;3.58;3.28;;;;;;;;;;5001132;28;20072;-46
2022/08/08 07:10:24;;;;;;;4.63;2.83;;;;;;;;;;5006621;28;20037;-49
2022/08/08 07:13:05;;;;;;;10.35;3.17;;;;;;;;;;5004121;28;20465;-47
2022/08/08 07:15:51;;;;;;;7.30;3.20;;;;;;;;;;5003204;28;20084;-46
2022/08/08 07:18:35;;;;;;;16.77;3.22;;;;;;;;;;5002349;28;20399;-48
2022/08/08 07:21:06;;;;;;;6.90;3.10;;;;;;;;;;5003743;28;20033;-49
2022/08/08 07:23:43;;;;;;;9.35;3.35;;;;;;;;;;4999586;28;20499;-46
2022/08/08 07:26:09;;;;;;;5.03;3.13;;;;;;;;;;5004208;28;20042;-46
2022/08/08 07:28:36;;;;;;;3.53;3.08;;;;;;;;;;5013124;28;20030;-48
2022/08/08 07:31:05;;;;;;;3.97;3.17;;;;;;;;;;5011609;28;20040;-46
2022/08/08 07:33:31;;;;;;;5.40;3.33;;;;;;;;;;5010877;28;20048;-47
2022/08/08 07:35:59;;;;;;;5.32;3.17;;;;;;;;;;5010864;28;20045;-47
2022/08/08 07:38:27;;;;;;;7.50;3.17;;;;;;;;;;5010219;28;20463;-50
2022/08/08 07:40:59;;;;;;;7.88;3.60;;;;;;;;;;5009480;28;20038;-50
2022/08/08 07:43:24;;;;;;;11.05;3.20;;;;;;;;;;5010687;28;20033;-48
2022/08/08 07:45:50;;;;;;;5.13;3.10;;;;;;;;;;5012253;28;20030;-46
2022/08/08 07:48:17;;;;;;;7.05;3.22;;;;;;;;;;5009597;28;20059;-52
2022/08/08 07:50:45;;;;;;;8.00;3.20;;;;;;;;;;5010421;28;20026;-49
2022/08/08 07:53:26;;;;;;;8.05;3.17;;;;;;;;;;5011031;28;20554;-49
2022/08/08 07:55:56;;;;;;;4.47;3.27;;;;;;;;;;5008178;28;20037;-47
2022/08/08 07:58:31;;;;;;;5.55;2.92;;;;;;;;;;5011055;28;20034;-49
2022/08/08 08:01:06;;;;;;;5.03;3.13;;;;;;;;;;5009877;28;20107;-46
2022/08/08 08:03:41;;;;;;;5.93;3.20;;;;;;;;;;5011849;28;20143;-49
2022/08/08 08:06:10;;;;;;;6.00;3.10;;;;;;;;;;5009829;28;20021;-49
2022/08/08 08:08:58;;;;;;;9.85;3.60;;;;;;;;;;5010283;28;20876;-46
2022/08/08 08:11:27;;;;;;;6.07;3.15;;;;;;;;;;5009987;28;20029;-47
2022/08/08 08:13:53;;;;;;;4.38;3.20;;;;;;;;;;5011223;28;20528;-48
2022/08/08 08:16:28;;;;;;;5.55;3.10;;;;;;;;;;5009032;28;20035;-46
2022/08/08 08:19:07;;;;;;;4.93;3.20;;;;;;;;;;5009710;28;20042;-48
2022/08/08 08:21:44;;;;;;;14.27;4.28;;;;;;;;;;5009747;28;20710;-47
2022/08/08 08:24:11;;;;;;;11.48;4.43;;;;;;;;;;5009480;28;20049;-47
2022/08/08 08:26:37;;;;;;;9.38;4.15;;;;;;;;;;5012323;28;20045;-48
2022/08/08 08:29:04;;;;;;;10.27;4.25;;;;;;;;;;5009954;28;20029;-48
2022/08/08 08:31:30;;;;;;;9.15;4.20;;;;;;;;;;5010801;28;20391;-46
2022/08/08 08:33:56;;;;;;;9.13;4.18;;;;;;;;;;5008899;28;20301;-47
2022/08/08 08:36:23;;;;;;;6.20;3.90;;;;;;;;;;5010604;28;20030;-48
2022/08/08 08:38:49;;;;;;;7.22;3.80;;;;;;;;;;5007336;28;20471;-51
2022/08/08 08:41:17;;;;;;;12.50;3.70;;;;;;;;;;5006820;28;20045;-46
2022/08/08 08:43:45;;;;;;;6.18;4.05;;;;;;;;;;5006811;28;20181;-47
2022/08/08 08:46:12;;;;;;;7.07;4.10;;;;;;;;;;5006707;28;20029;-46
2022/08/08 08:48:42;;;;;;;7.32;3.50;;;;;;;;;;5002960;28;20041;-47
2022/08/08 08:51:15;;;;;;;4.22;3.60;;;;;;;;;;5007616;28;20031;-50
2022/08/08 08:53:52;;;;;;;11.43;4.30;;;;;;;;;;5005957;28;20042;-49
2022/08/08 08:56:19;;;;;;;8.35;3.20;;;;;;;;;;5006278;28;20026;-46
2022/08/08 08:58:47;;;;;;;7.03;3.38;;;;;;;;;;5009091;28;20041;-46
2022/08/08 09:01:15;;;;;;;10.35;3.70;;;;;;;;;;5006173;28;20061;-46
2022/08/08 09:03:46;;;;;;;8.95;3.83;;;;;;;;;;5006571;28;20045;-46
2022/08/08 09:06:20;;;;;;;6.05;3.78;;;;;;;;;;5006110;28;20030;-48
2022/08/08 09:08:52;;;;;;;6.93;3.85;;;;;;;;;;5008516;28;20536;-45
2022/08/08 09:11:19;;;;;;;7.07;3.40;;;;;;;;;;5002877;28;20045;-48
2022/08/08 09:13:46;;;;;;;12.65;3.75;;;;;;;;;;5004658;28;20037;-47
2022/08/08 09:16:12;;;;;;;7.63;3.50;;;;;;;;;;5000776;28;20464;-52
2022/08/08 09:18:42;;;;;;;11.88;4.13;;;;;;;;;;5006909;28;20077;-48
2022/08/08 09:21:08;;;;;;;10.85;3.85;;;;;;;;;;5008094;28;20034;-48
2022/08/08 09:23:35;;;;;;;8.60;3.35;;;;;;;;;;5006410;28;20045;-46
2022/08/08 09:26:39;;;;;;;5.05;3.60;;;;;;;;;;5006632;28;20026;-47
2022/08/08 09:29:06;;;;;;;8.48;3.63;;;;;;;;;;4984771;28;20038;-48
2022/08/08 09:31:52;;;;;;;7.40;3.75;;;;;;;;;;4985748;28;20046;-46
2022/08/08 09:34:19;;;;;;;10.55;3.70;;;;;;;;;;4985937;28;20149;-51
2022/08/08 09:36:47;;;;;;;8.55;3.78;;;;;;;;;;4986049;28;20471;-46
2022/08/08 09:39:19;;;;;;;6.20;3.95;;;;;;;;;;4987786;28;20480;-47
2022/08/08 09:41:59;;;;;;;8.70;3.88;;;;;;;;;;4986103;28;20045;-48
2022/08/08 09:44:28;;;;;;;7.32;3.80;;;;;;;;;;4988304;28;20097;-47
2022/08/08 09:46:56;;;;;;;7.47;3.63;;;;;;;;;;4984282;28;20101;-47
2022/08/08 09:49:22;;;;;;;8.38;3.30;;;;;;;;;;4986108;28;20387;-50
2022/08/08 09:51:53;;;;;;;7.95;3.78;;;;;;;;;;4987254;28;20022;-47
2022/08/08 09:54:24;;;;;;;4.97;3.88;;;;;;;;;;4987598;28;20034;-53
2022/08/08 09:56:54;;;;;;;12.33;3.33;;;;;;;;;;4986234;28;20052;-49
2022/08/08 09:59:25;;;;;;;5.95;3.50;;;;;;;;;;4982993;28;20656;-48
2022/08/08 10:01:52;;;;;;;8.40;3.47;;;;;;;;;;4985557;28;20037;-47
2022/08/08 10:04:21;;;;;;;6.03;3.65;;;;;;;;;;4984093;28;20054;-48
2022/08/08 10:06:47;;;;;;;16.77;4.25;;;;;;;;;;5002438;28;20136;-47
2022/08/08 10:09:13;;;;;;;6.82;3.42;;;;;;;;;;5004358;28;20056;-49
2022/08/08 10:11:47;;;;;;;4.45;3.53;;;;;;;;;;5006972;28;20026;-47
2022/08/08 10:14:12;;;;;;;6.82;3.90;;;;;;;;;;5002664;28;20022;-47
2022/08/08 10:16:40;;;;;;;7.70;3.60;;;;;;;;;;5003476;28;20041;-48
2022/08/08 10:19:09;;;;;;;6.38;3.50;;;;;;;;;;5005559;28;20026;-51
2022/08/08 10:21:37;;;;;;;8.95;3.95;;;;;;;;;;5005222;28;20510;-50
2022/08/08 10:24:08;;;;;;;7.03;3.13;;;;;;;;;;5006303;28;20434;-48
2022/08/08 10:26:45;;;;;;;8.70;3.80;;;;;;;;;;5004628;28;20479;-50
2022/08/08 10:29:12;;;;;;;6.95;3.22;;;;;;;;;;5008125;28;20306;-47
2022/08/08 10:34:25;;;;;;;14.45;4.60;;;;;;;;;;5002545;28;20030;-46
2022/08/08 10:36:52;;;;;;;5.70;3.00;;;;;;;;;;5003554;28;20026;-47
2022/08/08 10:39:20;;;;;;;7.28;3.15;;;;;;;;;;5003273;28;20049;-46
2022/08/08 10:41:56;;;;;;;6.38;3.20;;;;;;;;;;5006257;28;20038;-47
2022/08/08 10:44:39;;;;;;;6.55;3.30;;;;;;;;;;5007739;28;20037;-49
2022/08/08 10:47:18;;;;;;;9.07;4.07;;;;;;;;;;5006200;28;20056;-48
2022/08/08 10:49:56;;;;;;;8.13;3.45;;;;;;;;;;5006255;28;20041;-47
2022/08/08 10:52:32;;;;;;;7.10;3.45;;;;;;;;;;5004424;28;20497;-46
2022/08/08 10:55:01;;;;;;;5.18;3.38;;;;;;;;;;5000989;28;20624;-47
2022/08/08 10:57:29;;;;;;;8.43;3.70;;;;;;;;;;5004992;28;20050;-47
2022/08/08 10:59:57;;;;;;;6.03;3.80;;;;;;;;;;5005746;28;20029;-47
2022/08/08 11:02:30;;;;;;;6.22;3.53;;;;;;;;;;5003582;28;20021;-46
2022/08/08 11:04:57;;;;;;;7.78;3.88;;;;;;;;;;5002370;28;20475;-50
2022/08/08 11:07:49;;;;;;;6.03;3.40;;;;;;;;;;5001609;28;20025;-47
2022/08/08 11:10:18;;;;;;;4.15;3.15;;;;;;;;;;5004366;28;20089;-51
2022/08/08 11:12:51;;;;;;;5.03;3.20;;;;;;;;;;5004336;28;20045;-52
2022/08/08 11:15:21;;;;;;;5.22;3.03;;;;;;;;;;5003528;28;20048;-46
2022/08/08 11:17:48;;;;;;;8.13;3.58;;;;;;;;;;5004711;28;20030;-49
2022/08/08 11:20:19;;;;;;;7.75;3.50;;;;;;;;;;5002615;28;20045;-46
2022/08/08 11:22:52;;;;;;;;;;;;;;;;;;5003148;28;20141;-48
2022/08/08 11:25:30;;;;;;;3.35;3.00;;;;;;;;;;5005156;28;19921;-47
2022/08/08 11:27:58;;;;;;;7.10;2.97;;;;;;;;;;5003438;28;20046;-47
2022/08/08 11:30:28;;;;;;;4.32;3.20;;;;;;;;;;5004469;28;20030;-45
2022/08/08 11:32:56;;;;;;;7.32;3.50;;;;;;;;;;5000161;28;20033;-52
2022/08/08 11:35:24;;;;;;;7.25;3.20;;;;;;;;;;5005089;28;20029;-46
2022/08/08 11:37:50;;;;;;;3.58;3.10;;;;;;;;;;5006317;28;20099;-47
2022/08/08 11:40:16;;;;;;;12.30;3.50;;;;;;;;;;5004814;28;20057;-47
2022/08/08 11:42:42;;;;;;;6.95;2.95;;;;;;;;;;4997384;28;20018;-48
2022/08/08 11:45:09;;;;;;;6.50;3.08;;;;;;;;;;5005556;28;20424;-48
2022/08/08 11:47:37;;;;;;;7.90;2.88;;;;;;;;;;5004772;28;20030;-48
2022/08/08 11:50:08;;;;;;;7.13;3.00;;;;;;;;;;5004402;28;20029;-48
2022/08/08 11:52:35;;;;;;;9.05;3.50;;;;;;;;;;5002991;28;20420;-48
2022/08/08 11:55:12;;;;;;;4.22;3.10;;;;;;;;;;5004035;28;20100;-46
2022/08/08 11:57:38;;;;;;;7.28;3.78;;;;;;;;;;5002512;28;20625;-48
2022/08/08 12:00:06;;;;;;;9.98;3.13;;;;;;;;;;5005463;28;20113;-48
2022/08/08 12:02:45;;;;;;;12.07;3.42;;;;;;;;;;5001611;28;20398;-49
2022/08/08 12:05:10;;;;;;;8.90;3.40;;;;;;;;;;5004974;28;20022;-47
2022/08/08 12:07:45;;;;;;;4.43;3.40;;;;;;;;;;5005680;28;20043;-46
2022/08/08 12:10:12;;;;;;;6.50;3.55;;;;;;;;;;4999859;28;20032;-47
2022/08/08 12:12:43;;;;;;;6.15;2.92;;;;;;;;;;5004343;28;20034;-47
2022/08/08 12:15:09;;;;;;;7.50;3.10;;;;;;;;;;5007313;28;20061;-49
2022/08/08 12:17:38;;;;;;;3.50;2.97;;;;;;;;;;5008169;28;20104;-47
2022/08/08 12:20:06;;;;;;;10.48;3.65;;;;;;;;;;5008395;28;20069;-46
2022/08/08 12:22:32;;;;;;;4.72;3.28;;;;;;;;;;5007460;28;20034;-51
2022/08/08 12:24:59;;;;;;;4.97;3.20;;;;;;;;;;5008497;28;20076;-46
2022/08/08 12:27:36;;;;;;;4.47;3.13;;;;;;;;;;5004653;28;20026;-46
2022/08/08 12:30:03;;;;;;;3.10;2.78;;;;;;;;;;5004386;28;20092;-47
2022/08/08 12:32:39;;;;;;;7.40;3.20;;;;;;;;;;5007846;28;20105;-50
2022/08/08 12:35:05;;;;;;;4.80;3.28;;;;;;;;;;5007767;28;20030;-50
2022/08/08 12:37:34;;;;;;;5.20;2.92;;;;;;;;;;5008262;28;20052;-46
2022/08/08 12:40:12;;;;;;;4.53;3.42;;;;;;;;;;5006716;28;20025;-49
2022/08/08 12:42:46;;;;;;;6.18;3.00;;;;;;;;;;5004431;28;20395;-48
2022/08/08 12:45:13;;;;;;;7.80;3.17;;;;;;;;;;5007535;28;20034;-50
2022/08/08 12:47:39;;;;;;;4.90;3.08;;;;;;;;;;5005586;28;20037;-47
2022/08/08 12:50:05;;;;;;;7.30;3.00;;;;;;;;;;5006850;28;20089;-51
2022/08/08 12:52:40;;;;;;;4.78;3.45;;;;;;;;;;5008453;28;20061;-49
2022/08/08 12:55:09;;;;;;;6.80;3.30;;;;;;;;;;5004777;28;20095;-50
2022/08/08 12:57:36;;;;;;;6.65;3.45;;;;;;;;;;5007380;28;20381;-48
2022/08/08 13:00:04;;;;;;;6.57;3.03;;;;;;;;;;5007745;28;20476;-51
2022/08/08 13:02:34;;;;;;;7.22;3.28;;;;;;;;;;5007796;28;20026;-49
2022/08/08 13:05:02;;;;;;;7.85;3.70;;;;;;;;;;5004477;28;20030;-51
2022/08/08 13:07:39;;;;;;;5.63;3.50;;;;;;;;;;5006844;28;20426;-47
2022/08/08 13:10:10;;;;;;;6.35;3.47;;;;;;;;;;5003172;28;20034;-52
2022/08/08 13:12:38;;;;;;;7.72;3.50;;;;;;;;;;5006534;28;20034;-48
2022/08/08 13:15:09;;;;;;;8.23;3.58;;;;;;;;;;5006820;28;20054;-49
2022/08/08 13:17:35;;;;;;;5.07;3.33;;;;;;;;;;5004945;28;20117;-47
2022/08/08 13:20:05;;;;;;;4.88;3.25;;;;;;;;;;5008399;28;20069;-50
2022/08/08 13:22:35;;;;;;;7.35;3.10;;;;;;;;;;5007069;28;20475;-48
2022/08/08 13:25:04;;;;;;;5.03;3.10;;;;;;;;;;5006554;28;20034;-49
2022/08/08 13:27:31;;;;;;;6.30;3.50;;;;;;;;;;5003480;28;20057;-48
2022/08/08 13:29:59;;;;;;;4.47;3.13;;;;;;;;;;5008108;28;20080;-49
2022/08/08 13:32:27;;;;;;;6.07;3.45;;;;;;;;;;5008223;28;20025;-47
2022/08/08 13:34:57;;;;;;;6.90;3.50;;;;;;;;;;5008315;28;20459;-51
2022/08/08 13:37:27;;;;;;;5.97;3.40;;;;;;;;;;5005454;28;20387;-49
2022/08/08 13:39:54;;;;;;;4.60;3.33;;;;;;;;;;5005603;28;20042;-49
2022/08/08 13:42:21;;;;;;;10.63;3.85;;;;;;;;;;5007376;28;20052;-49
2022/08/08 13:44:55;;;;;;;8.98;3.65;;;;;;;;;;5007382;28;20116;-49
2022/08/08 13:47:20;;;;;;;8.02;3.65;;;;;;;;;;5006408;28;20491;-48
2022/08/08 13:50:02;;;;;;;9.63;4.45;;;;;;;;;;5004477;28;20041;-46
2022/08/08 13:52:28;;;;;;;9.45;3.90;;;;;;;;;;5005997;28;20345;-51
2022/08/08 13:54:56;;;;;;;8.98;3.78;;;;;;;;;;5004489;28;20104;-46
2022/08/08 13:57:30;;;;;;;10.52;3.80;;;;;;;;;;5006223;28;20117;-49
2022/08/08 14:00:20;;;;;;;7.63;3.88;;;;;;;;;;5007151;28;20057;-48
2022/08/08 14:02:59;;;;;;;6.47;4.10;;;;;;;;;;5003386;28;20036;-50
2022/08/08 14:05:30;;;;;;;11.30;3.85;;;;;;;;;;5004939;28;20034;-50
2022/08/08 14:07:55;;;;;;;11.30;3.95;;;;;;;;;;5004865;28;20506;-51
2022/08/08 14:10:22;;;;;;;9.98;3.78;;;;;;;;;;5005746;28;20030;-46
2022/08/08 14:12:50;;;;;;;7.03;3.80;;;;;;;;;;5005391;28;20101;-47
2022/08/08 14:15:32;;;;;;;7.45;3.90;;;;;;;;;;5005784;28;20022;-47
2022/08/08 14:17:59;;;;;;;8.00;3.38;;;;;;;;;;5003328;28;20479;-49
2022/08/08 14:20:33;;;;;;;12.00;4.05;;;;;;;;;;5006484;28;20044;-47
2022/08/08 14:23:18;;;;;;;12.55;3.85;;;;;;;;;;5007237;28;20112;-51
2022/08/08 14:25:43;;;;;;;16.40;4.13;;;;;;;;;;5004598;28;20072;-47
2022/08/08 14:28:09;;;;;;;5.03;3.63;;;;;;;;;;5004850;28;20105;-51
2022/08/08 14:30:35;;;;;;;4.85;3.50;;;;;;;;;;5005636;28;20566;-48
2022/08/08 14:33:01;;;;;;;5.65;3.55;;;;;;;;;;5005046;28;20038;-48
2022/08/08 14:35:27;;;;;;;7.05;3.75;;;;;;;;;;5005371;28;20033;-46
2022/08/08 14:37:53;;;;;;;13.48;3.80;;;;;;;;;;5003758;28;20076;-46
2022/08/08 14:40:20;;;;;;;10.13;3.90;;;;;;;;;;5007686;28;20029;-46
2022/08/08 14:42:48;;;;;;;7.20;4.05;;;;;;;;;;5004717;28;20037;-49
2022/08/08 14:45:14;;;;;;;7.63;3.58;;;;;;;;;;5006979;28;20544;-48
2022/08/08 14:47:52;;;;;;;9.43;4.10;;;;;;;;;;5004610;28;20034;-50
2022/08/08 14:50:22;;;;;;;8.80;4.20;;;;;;;;;;5004721;28;20040;-47
2022/08/08 14:52:55;;;;;;;9.55;3.55;;;;;;;;;;5003003;28;20605;-47
2022/08/08 14:55:23;;;;;;;10.25;3.90;;;;;;;;;;5004720;28;20030;-46
2022/08/08 14:57:50;;;;;;;12.80;3.78;;;;;;;;;;5003466;28;20046;-48
2022/08/08 15:00:16;;;;;;;12.65;3.55;;;;;;;;;;5008498;28;20046;-48
2022/08/08 15:02:46;;;;;;;5.72;3.25;;;;;;;;;;5005568;28;20038;-48
2022/08/08 15:05:13;;;;;;;14.05;3.72;;;;;;;;;;5004419;28;20510;-50
2022/08/08 15:07:40;;;;;;;11.68;3.47;;;;;;;;;;5000923;28;20113;-48
2022/08/08 15:10:06;;;;;;;8.85;3.67;;;;;;;;;;5001903;28;20034;-50
2022/08/08 15:12:32;;;;;;;7.05;3.22;;;;;;;;;;5003110;28;20030;-48
2022/08/08 15:14:58;;;;;;;4.75;3.45;;;;;;;;;;5004393;28;20079;-50
2022/08/08 15:17:24;;;;;;;5.38;3.00;;;;;;;;;;5004799;28;20072;-49
2022/08/08 15:19:50;;;;;;;7.65;3.40;;;;;;;;;;5007039;28;20037;-51
2022/08/08 15:22:17;;;;;;;5.10;3.42;;;;;;;;;;5004613;28;20031;-50